Time;durP1;ratioP1;P1;durP2;ratioP2;P2;SDS_P1;SDS_P2;PMS_P1;PMS_P2;Temp;Humidity;BMP_temperature;BMP_pressure;BME280_temperature;BME280_humidity;BME280_pressure;Samples;Min_cycle;Max_cycle;Signal;HPM_P1;HPM_P2
2021/04/04 00:01:41;;;;;;;17.73;8.63;;;0.70;99.90;;;;;;5034700;28;20140;-86
2021/04/04 00:04:09;;;;;;;17.88;8.35;;;0.70;99.90;;;;;;5023761;28;20088;-88
2021/04/04 00:06:38;;;;;;;20.02;9.82;;;0.70;99.90;;;;;;5010564;28;20111;-87
2021/04/04 00:09:08;;;;;;;17.05;8.50;;;0.70;99.90;;;;;;5024866;28;20132;-87
2021/04/04 00:11:39;;;;;;;24.40;10.32;;;0.70;99.90;;;;;;5029591;28;20137;-88
2021/04/04 00:14:09;;;;;;;22.58;8.73;;;0.70;99.90;;;;;;5032770;28;20081;-86
2021/04/04 00:16:35;;;;;;;17.92;8.38;;;0.70;99.90;;;;;;5033726;28;20045;-86
2021/04/04 00:19:02;;;;;;;14.77;7.40;;;0.60;99.90;;;;;;5035742;28;20133;-87
2021/04/04 00:21:34;;;;;;;12.55;6.18;;;0.60;99.90;;;;;;5029756;28;20112;-87
2021/04/04 00:24:06;;;;;;;19.77;6.18;;;0.70;99.90;;;;;;5030449;28;20121;-87
2021/04/04 00:26:35;;;;;;;15.40;5.95;;;0.70;99.90;;;;;;5030634;28;20415;-86
2021/04/04 00:29:08;;;;;;;11.88;6.00;;;0.70;99.90;;;;;;5017806;28;20407;-89
2021/04/04 00:31:38;;;;;;;15.25;6.43;;;0.80;99.90;;;;;;5012509;28;20099;-86
2021/04/04 00:34:09;;;;;;;9.20;5.63;;;0.70;99.90;;;;;;5007161;28;20046;-87
2021/04/04 00:36:36;;;;;;;14.65;5.25;;;0.70;99.90;;;;;;5011241;28;20041;-87
2021/04/04 00:39:08;;;;;;;13.20;5.03;;;0.80;99.90;;;;;;5014437;28;20128;-87
2021/04/04 00:41:39;;;;;;;7.82;5.32;;;0.80;99.90;;;;;;5013308;28;20525;-87
2021/04/04 00:44:09;;;;;;;12.82;5.50;;;0.80;99.90;;;;;;5027283;28;20161;-86
2021/04/04 00:46:37;;;;;;;24.13;9.10;;;0.70;99.90;;;;;;5000875;28;20483;-86
2021/04/04 00:49:04;;;;;;;13.23;5.57;;;0.60;99.90;;;;;;5009285;28;20112;-87
2021/04/04 00:51:33;;;;;;;12.27;5.90;;;0.50;99.90;;;;;;5007842;28;20077;-86
2021/04/04 00:53:59;;;;;;;16.00;5.85;;;0.40;99.90;;;;;;5032182;28;20045;-86
2021/04/04 00:56:27;;;;;;;18.10;6.72;;;0.40;99.90;;;;;;5032924;28;20050;-86
2021/04/04 00:58:56;;;;;;;9.63;5.40;;;0.40;99.90;;;;;;5034651;28;20054;-85
2021/04/04 01:01:25;;;;;;;15.13;6.35;;;0.30;99.90;;;;;;5016497;28;20049;-87
2021/04/04 01:03:51;;;;;;;15.07;6.03;;;0.30;99.90;;;;;;5033280;28;20406;-85
2021/04/04 01:06:18;;;;;;;12.20;6.35;;;0.20;99.90;;;;;;5019990;28;20125;-86
2021/04/04 01:08:47;;;;;;;16.08;6.25;;;0.10;99.90;;;;;;5043715;28;20108;-85
2021/04/04 01:11:23;;;;;;;12.40;5.25;;;0.00;99.90;;;;;;5046333;28;20469;-86
2021/04/04 01:14:07;;;;;;;15.38;6.28;;;0.00;99.90;;;;;;5019165;28;20069;-85
2021/04/04 01:16:41;;;;;;;13.50;6.20;;;0.00;99.90;;;;;;5046856;28;20429;-86
2021/04/04 01:19:35;;;;;;;13.85;5.53;;;0.10;99.90;;;;;;5003497;28;20084;-85
2021/04/04 01:22:18;;;;;;;19.30;7.60;;;0.10;99.90;;;;;;5036949;28;20096;-88
2021/04/04 01:25:02;;;;;;;16.15;6.18;;;0.00;99.90;;;;;;5045093;28;20132;-86
2021/04/04 01:27:46;;;;;;;13.32;5.82;;;0.00;99.90;;;;;;5015605;28;20041;-87
2021/04/04 01:30:15;;;;;;;16.67;7.05;;;0.00;99.90;;;;;;5035490;28;20136;-87
2021/04/04 01:32:48;;;;;;;11.90;6.50;;;0.00;99.90;;;;;;5022362;28;20128;-86
2021/04/04 01:35:20;;;;;;;13.93;6.43;;;0.00;99.90;;;;;;5038496;28;20116;-87
2021/04/04 01:37:50;;;;;;;9.60;4.80;;;-0.10;99.90;;;;;;5020571;28;20089;-86
2021/04/04 01:40:18;;;;;;;18.30;6.60;;;-0.20;99.90;;;;;;5032292;28;20387;-86
2021/04/04 01:42:45;;;;;;;13.82;6.18;;;-0.20;99.90;;;;;;5037076;28;20041;-84
2021/04/04 01:45:12;;;;;;;14.27;6.68;;;-0.20;99.90;;;;;;5037193;28;20542;-86
2021/04/04 01:47:39;;;;;;;12.98;6.63;;;-0.20;99.90;;;;;;5037323;28;20537;-86
2021/04/04 01:50:10;;;;;;;12.20;7.15;;;-0.20;99.90;;;;;;5039298;28;20068;-86
2021/04/04 01:52:37;;;;;;;17.08;6.85;;;-0.20;99.90;;;;;;5042402;28;20088;-86
2021/04/04 01:55:06;;;;;;;16.23;6.75;;;-0.20;99.90;;;;;;5038423;28;20093;-86
2021/04/04 01:57:33;;;;;;;13.13;5.50;;;-0.20;99.90;;;;;;5042070;28;20049;-87
2021/04/04 02:00:01;;;;;;;10.43;5.40;;;-0.20;99.90;;;;;;5035689;28;20332;-86
2021/04/04 02:02:29;;;;;;;10.93;5.95;;;-0.20;99.90;;;;;;5041660;28;20162;-85
2021/04/04 02:04:57;;;;;;;16.83;6.03;;;-0.30;99.90;;;;;;5019581;28;20394;-85
2021/04/04 02:07:23;;;;;;;11.48;5.38;;;-0.20;99.90;;;;;;5017634;28;20081;-86
2021/04/04 02:09:53;;;;;;;13.20;5.90;;;-0.20;99.90;;;;;;5037415;28;20045;-85
2021/04/04 02:12:23;;;;;;;10.75;4.90;;;-0.30;99.90;;;;;;5014074;28;20084;-86
2021/04/04 02:14:50;;;;;;;14.90;5.25;;;-0.30;99.90;;;;;;5037063;28;20045;-85
2021/04/04 02:17:17;;;;;;;10.15;5.20;;;-0.30;99.90;;;;;;5033492;28;20159;-86
2021/04/04 02:19:45;;;;;;;16.00;5.30;;;-0.30;99.90;;;;;;5035150;28;20439;-85
2021/04/04 02:22:18;;;;;;;12.98;5.38;;;-0.30;99.90;;;;;;5036192;28;20147;-87
2021/04/04 02:24:46;;;;;;;9.77;4.13;;;-0.30;99.90;;;;;;5038794;28;20067;-87
2021/04/04 02:27:14;;;;;;;11.38;5.00;;;-0.30;99.90;;;;;;5042196;28;20117;-87
2021/04/04 02:29:40;;;;;;;15.45;5.28;;;-0.30;99.90;;;;;;5040450;28;20077;-88
2021/04/04 02:32:09;;;;;;;9.45;4.85;;;-0.30;99.90;;;;;;5040076;28;20122;-86
2021/04/04 02:34:42;;;;;;;12.95;5.57;;;-0.20;99.90;;;;;;5034336;28;20049;-85
2021/04/04 02:37:15;;;;;;;10.90;6.22;;;-0.20;99.90;;;;;;5009942;28;20048;-86
2021/04/04 02:39:47;;;;;;;10.07;5.93;;;-0.20;99.90;;;;;;5044074;28;20045;-86
2021/04/04 02:42:19;;;;;;;12.77;5.90;;;-0.30;99.90;;;;;;5006571;28;20048;-85
2021/04/04 02:44:48;;;;;;;16.15;6.45;;;-0.40;99.90;;;;;;5036733;28;20107;-84
2021/04/04 02:47:16;;;;;;;10.20;5.78;;;-0.50;99.90;;;;;;5005880;28;20107;-86
2021/04/04 02:49:47;;;;;;;14.25;6.30;;;-0.50;99.90;;;;;;5029362;28;20059;-85
2021/04/04 02:52:20;;;;;;;18.90;6.65;;;-0.50;99.90;;;;;;5022425;28;20139;-85
2021/04/04 02:54:51;;;;;;;10.63;6.15;;;-0.60;99.90;;;;;;5047775;28;20080;-85
2021/04/04 02:57:18;;;;;;;16.10;6.47;;;-0.70;99.90;;;;;;5021449;28;20049;-85
2021/04/04 02:59:52;;;;;;;12.07;5.70;;;-0.70;99.90;;;;;;5035925;28;20128;-86
2021/04/04 03:02:19;;;;;;;12.07;5.68;;;-0.70;99.90;;;;;;5038098;28;20045;-86
2021/04/04 03:04:48;;;;;;;13.55;5.18;;;-0.70;99.90;;;;;;5016349;28;20428;-85
2021/04/04 03:07:22;;;;;;;10.43;5.20;;;-0.80;99.90;;;;;;5024915;28;20149;-87
2021/04/04 03:09:51;;;;;;;13.00;5.80;;;-0.80;99.90;;;;;;5035820;28;20049;-86
2021/04/04 03:12:20;;;;;;;11.23;5.38;;;-0.80;99.90;;;;;;5032483;28;20128;-86
2021/04/04 03:14:48;;;;;;;12.15;5.30;;;-0.80;99.90;;;;;;5016266;28;20056;-85
2021/04/04 03:17:16;;;;;;;14.20;6.43;;;-0.70;99.90;;;;;;5033297;28;20045;-87
2021/04/04 03:19:45;;;;;;;11.85;5.95;;;-0.70;99.90;;;;;;5036216;28;20048;-86
2021/04/04 03:22:15;;;;;;;15.93;5.78;;;-0.70;99.90;;;;;;5039107;28;20347;-86
2021/04/04 03:24:46;;;;;;;13.43;6.00;;;-0.80;99.90;;;;;;5033316;28;20128;-85
2021/04/04 03:27:15;;;;;;;16.00;6.93;;;-0.70;99.90;;;;;;5046863;28;20331;-86
2021/04/04 03:29:41;;;;;;;13.55;6.75;;;-0.70;99.90;;;;;;5044808;28;20049;-85
2021/04/04 03:32:08;;;;;;;16.42;7.22;;;-0.60;99.90;;;;;;5036068;28;20080;-86
2021/04/04 03:34:35;;;;;;;13.02;6.68;;;-0.60;99.90;;;;;;5044426;28;20443;-87
2021/04/04 03:37:05;;;;;;;15.82;7.18;;;-0.60;99.90;;;;;;5026103;28;20137;-86
2021/04/04 03:39:31;;;;;;;15.52;6.72;;;-0.60;99.90;;;;;;5034318;28;20156;-87
2021/04/04 03:42:00;;;;;;;12.32;6.72;;;-0.60;99.90;;;;;;5017820;28;20158;-85
2021/04/04 03:44:30;;;;;;;12.30;6.55;;;-0.70;99.90;;;;;;5035214;28;20208;-86
2021/04/04 03:47:01;;;;;;;14.40;7.20;;;-0.70;99.90;;;;;;5033616;28;20482;-87
2021/04/04 03:49:30;;;;;;;11.07;6.50;;;-0.80;99.90;;;;;;5014911;28;20085;-86
2021/04/04 03:51:59;;;;;;;13.15;7.20;;;-0.80;99.90;;;;;;5017282;28;20198;-85
2021/04/04 03:54:29;;;;;;;12.35;6.07;;;-0.90;99.90;;;;;;5017390;28;20107;-86
2021/04/04 03:56:58;;;;;;;14.30;6.72;;;-0.90;99.90;;;;;;5034152;28;20053;-86
2021/04/04 03:59:27;;;;;;;18.00;6.97;;;-1.00;99.90;;;;;;5017040;28;20084;-86
2021/04/04 04:01:57;;;;;;;13.05;6.85;;;-1.10;99.90;;;;;;5034863;28;20055;-85
2021/04/04 04:04:25;;;;;;;14.23;7.15;;;-1.10;99.90;;;;;;5033550;28;20056;-85
2021/04/04 04:06:53;;;;;;;15.48;7.18;;;-1.10;99.90;;;;;;5035881;28;20045;-86
2021/04/04 04:09:20;;;;;;;19.25;5.85;;;-1.10;99.90;;;;;;5037977;28;20143;-86
2021/04/04 04:11:50;;;;;;;13.60;6.10;;;-1.10;99.90;;;;;;5039262;28;20486;-87
2021/04/04 04:14:22;;;;;;;17.02;6.53;;;-1.10;99.90;;;;;;5035939;28;20124;-88
2021/04/04 04:16:49;;;;;;;13.45;6.55;;;-1.10;99.90;;;;;;5037971;28;20101;-86
2021/04/04 04:19:16;;;;;;;10.75;6.30;;;-1.10;99.90;;;;;;5040471;28;20094;-87
2021/04/04 04:21:45;;;;;;;14.02;6.18;;;-1.00;99.90;;;;;;5039416;28;20042;-87
2021/04/04 04:24:18;;;;;;;14.45;6.53;;;-1.00;99.90;;;;;;5038203;28;20053;-86
2021/04/04 04:26:47;;;;;;;15.00;6.95;;;-0.90;99.90;;;;;;5033723;28;20060;-85
2021/04/04 04:29:16;;;;;;;15.68;6.25;;;-0.90;99.90;;;;;;5018927;28;20046;-85
2021/04/04 04:31:46;;;;;;;14.90;6.18;;;-0.90;99.90;;;;;;5034121;28;20145;-87
2021/04/04 04:34:17;;;;;;;17.58;6.43;;;-0.90;99.90;;;;;;5037388;28;20049;-86
2021/04/04 04:36:46;;;;;;;15.38;6.20;;;-0.90;99.90;;;;;;5034549;28;20439;-85
2021/04/04 04:39:13;;;;;;;16.40;6.70;;;-0.90;99.90;;;;;;5032769;28;20041;-85
2021/04/04 04:41:51;;;;;;;16.33;5.68;;;-0.90;99.90;;;;;;5032950;28;20136;-84
2021/04/04 04:44:25;;;;;;;21.67;6.35;;;-0.90;99.90;;;;;;5036460;28;20046;-87
2021/04/04 04:46:52;;;;;;;12.00;6.38;;;-0.90;99.90;;;;;;5025851;28;20045;-85
2021/04/04 04:49:19;;;;;;;14.40;6.93;;;-0.90;99.90;;;;;;5024351;28;20083;-86
2021/04/04 04:51:47;;;;;;;12.30;6.60;;;-0.90;99.90;;;;;;5027862;28;20128;-85
2021/04/04 04:54:18;;;;;;;16.73;6.30;;;-1.00;99.90;;;;;;5049202;28;20349;-87
2021/04/04 04:56:46;;;;;;;17.45;6.60;;;-1.10;99.90;;;;;;5029116;28;20149;-86
2021/04/04 04:59:20;;;;;;;14.77;6.57;;;-1.20;99.90;;;;;;5022484;28;20144;-86
2021/04/04 05:01:51;;;;;;;17.33;6.35;;;-1.20;99.90;;;;;;5040692;28;20044;-86
2021/04/04 05:04:19;;;;;;;13.43;5.88;;;-1.20;99.90;;;;;;5055814;28;20069;-88
2021/04/04 05:06:47;;;;;;;14.00;6.68;;;-1.20;99.90;;;;;;5048196;28;20053;-86
2021/04/04 05:09:18;;;;;;;11.75;6.60;;;-1.20;99.90;;;;;;5035537;28;20061;-87
2021/04/04 05:11:48;;;;;;;13.43;6.30;;;-1.10;99.90;;;;;;5053767;28;20049;-86
2021/04/04 05:14:17;;;;;;;14.60;6.38;;;-1.00;99.90;;;;;;5052681;28;20053;-87
2021/04/04 05:16:45;;;;;;;18.17;6.85;;;-0.90;99.90;;;;;;5049138;28;20115;-88
2021/04/04 05:19:12;;;;;;;11.93;6.03;;;-0.90;99.90;;;;;;5049877;28;20076;-87
2021/04/04 05:21:41;;;;;;;15.63;6.72;;;-0.80;99.90;;;;;;5052437;28;20060;-86
2021/04/04 05:24:11;;;;;;;13.98;6.15;;;-0.80;99.90;;;;;;5047662;28;20107;-87
2021/04/04 05:26:47;;;;;;;19.88;6.22;;;-0.70;99.90;;;;;;5028763;28;20136;-87
2021/04/04 05:29:15;;;;;;;12.02;6.00;;;-0.60;99.90;;;;;;5029872;28;20134;-86
2021/04/04 05:31:56;;;;;;;11.85;6.25;;;-0.50;99.90;;;;;;5055664;28;20049;-86
2021/04/04 05:34:28;;;;;;;15.75;5.63;;;-0.40;99.90;;;;;;5053261;28;20374;-87
2021/04/04 05:37:02;;;;;;;13.90;6.03;;;-0.40;99.90;;;;;;5055440;28;20377;-85
2021/04/04 05:39:32;;;;;;;15.45;6.63;;;-0.30;99.90;;;;;;5028043;28;20049;-86
2021/04/04 05:42:06;;;;;;;16.17;7.40;;;-0.20;99.90;;;;;;5056188;28;20200;-88
2021/04/04 05:44:52;;;;;;;13.05;6.20;;;-0.10;99.90;;;;;;5052983;28;20446;-87
2021/04/04 05:47:41;;;;;;;11.98;6.05;;;-0.10;99.90;;;;;;5051492;28;20076;-85
2021/04/04 05:50:14;;;;;;;13.63;6.15;;;-0.20;99.90;;;;;;5051285;28;20044;-85
2021/04/04 05:52:44;;;;;;;10.52;5.32;;;-0.10;99.90;;;;;;5035013;28;20076;-86
2021/04/04 05:55:32;;;;;;;12.40;6.20;;;0.00;99.90;;;;;;5048971;28;20061;-87
2021/04/04 05:58:12;;;;;;;16.35;6.93;;;0.20;99.90;;;;;;5045800;28;20068;-87
2021/04/04 06:00:46;;;;;;;11.27;6.55;;;0.20;99.90;;;;;;5023281;28;20063;-86
2021/04/04 06:03:36;;;;;;;14.27;7.10;;;0.30;99.90;;;;;;5036209;28;20103;-86
2021/04/04 06:06:42;;;;;;;9.95;6.70;;;0.30;99.90;;;;;;5026450;28;20057;-86
2021/04/04 06:09:34;;;;;;;13.70;6.10;;;0.40;99.90;;;;;;5035379;28;20046;-86
2021/04/04 06:12:36;;;;;;;14.95;6.75;;;0.40;99.90;;;;;;5034246;28;20079;-86
2021/04/04 06:15:12;;;;;;;9.27;4.80;;;0.60;99.90;;;;;;5033142;28;20038;-87
2021/04/04 06:17:58;;;;;;;16.23;7.20;;;0.80;99.90;;;;;;5030003;28;20216;-85
2021/04/04 06:21:20;;;;;;;15.23;7.40;;;1.00;99.90;;;;;;5010228;28;20041;-83
2021/04/04 06:24:01;;;;;;;12.68;6.80;;;1.30;99.90;;;;;;4933903;29;20195;-81
2021/04/04 06:27:17;;;;;;;18.42;7.88;;;1.50;99.90;;;;;;5032505;28;20343;-83
2021/04/04 06:29:52;;;;;;;15.50;7.30;;;1.90;99.90;;;;;;4997163;28;20103;-83
2021/04/04 06:32:41;;;;;;;18.17;7.35;;;2.70;99.90;;;;;;5032711;28;20177;-83
2021/04/04 06:35:24;;;;;;;10.00;5.88;;;3.50;99.90;;;;;;5030070;28;20372;-84
2021/04/04 06:38:02;;;;;;;11.55;5.88;;;4.30;99.90;;;;;;5028795;28;20049;-84
2021/04/04 06:40:38;;;;;;;13.13;6.25;;;5.00;99.90;;;;;;5006499;28;20084;-84
2021/04/04 06:43:19;;;;;;;14.05;5.55;;;5.40;99.90;;;;;;5033993;28;20124;-86
2021/04/04 06:46:25;;;;;;;12.82;5.22;;;5.80;95.50;;;;;;5032772;28;20049;-86
2021/04/04 06:49:25;;;;;;;9.95;5.28;;;6.30;93.00;;;;;;5030976;28;20079;-87
2021/04/04 06:52:10;;;;;;;13.75;5.60;;;6.50;88.20;;;;;;5027723;28;20145;-87
2021/04/04 06:54:48;;;;;;;11.15;5.47;;;6.60;88.50;;;;;;5025838;28;20049;-88
2021/04/04 06:57:42;;;;;;;10.88;4.97;;;6.90;85.40;;;;;;5031583;28;20037;-86
2021/04/04 07:00:15;;;;;;;12.90;4.85;;;7.30;81.60;;;;;;5002122;28;20077;-86
2021/04/04 07:02:58;;;;;;;9.80;5.70;;;7.90;79.70;;;;;;5032949;28;20057;-86
2021/04/04 07:05:37;;;;;;;12.27;5.28;;;8.30;75.90;;;;;;5011219;28;20119;-85
2021/04/04 07:08:34;;;;;;;11.85;5.00;;;8.60;73.70;;;;;;5037038;28;20129;-87
2021/04/04 07:11:18;;;;;;;12.38;5.57;;;9.20;72.10;;;;;;5017183;28;20059;-87
2021/04/04 07:14:18;;;;;;;12.20;4.57;;;9.30;66.90;;;;;;5034143;28;20045;-86
2021/04/04 07:17:10;;;;;;;12.20;5.32;;;9.50;65.50;;;;;;5038317;28;20060;-86
2021/04/04 07:20:13;;;;;;;11.98;5.28;;;9.60;64.50;;;;;;5033666;28;20069;-88
2021/04/04 07:23:20;;;;;;;15.90;4.55;;;9.70;64.00;;;;;;5017806;28;20042;-88
2021/04/04 07:26:05;;;;;;;13.13;4.78;;;9.40;64.30;;;;;;4971786;28;20359;-85
2021/04/04 07:29:02;;;;;;;17.23;5.35;;;9.30;64.90;;;;;;5009801;28;20444;-86
2021/04/04 07:31:39;;;;;;;12.23;5.07;;;9.30;65.10;;;;;;5028605;28;20052;-89
2021/04/04 07:34:24;;;;;;;11.73;4.75;;;9.40;64.70;;;;;;5050231;28;20057;-88
2021/04/04 07:37:12;;;;;;;14.23;5.15;;;9.20;65.00;;;;;;5034790;28;20048;-87
2021/04/04 07:39:49;;;;;;;13.02;5.55;;;9.30;66.60;;;;;;5039098;28;20046;-87
2021/04/04 07:42:20;;;;;;;8.88;4.82;;;9.60;66.00;;;;;;5010547;28;20485;-86
2021/04/04 07:44:55;;;;;;;12.23;5.70;;;9.80;64.90;;;;;;5034225;28;20091;-86
2021/04/04 07:47:44;;;;;;;13.63;5.10;;;10.00;64.00;;;;;;5027993;28;20107;-85
2021/04/04 07:50:21;;;;;;;12.32;5.72;;;10.30;61.00;;;;;;5047696;28;20045;-88
2021/04/04 07:53:24;;;;;;;16.65;5.88;;;10.40;62.00;;;;;;5015395;28;20041;-86
2021/04/04 07:55:54;;;;;;;;;;;10.60;62.50;;;;;;5013960;28;20065;-87
2021/04/04 07:58:54;;;;;;;20.40;5.95;;;10.90;61.70;;;;;;5024419;28;19936;-87
2021/04/04 08:01:26;;;;;;;14.05;4.97;;;11.00;60.70;;;;;;4993194;28;20045;-87
2021/04/04 08:04:32;;;;;;;13.52;4.93;;;11.50;59.80;;;;;;5032023;28;20049;-86
2021/04/04 08:07:20;;;;;;;12.40;4.78;;;12.20;58.00;;;;;;5025324;28;20054;-86
2021/04/04 08:10:07;;;;;;;10.30;4.80;;;13.00;54.30;;;;;;5026581;28;20042;-87
2021/04/04 08:13:15;;;;;;;11.02;4.53;;;13.20;53.20;;;;;;5031653;28;20049;-88
2021/04/04 08:16:18;;;;;;;14.63;4.68;;;13.80;53.20;;;;;;4912468;29;20086;-89
2021/04/04 08:18:46;;;;;;;9.35;4.53;;;14.00;48.70;;;;;;4917557;29;20044;-86
2021/04/04 08:21:35;;;;;;;11.30;4.55;;;13.90;49.50;;;;;;5007405;28;20041;-86
2021/04/04 08:24:25;;;;;;;11.80;5.00;;;13.90;49.30;;;;;;5035401;28;20427;-88
2021/04/04 08:27:21;;;;;;;10.63;4.60;;;13.90;48.60;;;;;;5033125;28;20057;-88
2021/04/04 08:30:17;;;;;;;10.25;4.47;;;14.50;50.00;;;;;;5017259;28;20180;-86
2021/04/04 08:32:49;;;;;;;8.80;4.95;;;14.70;48.70;;;;;;5018225;28;20063;-87
2021/04/04 08:35:25;;;;;;;10.43;4.40;;;14.80;47.80;;;;;;5013538;28;20056;-87
2021/04/04 08:38:38;;;;;;;11.10;4.93;;;15.00;47.70;;;;;;4966811;28;20093;-90
2021/04/04 08:45:25;;;;;;;9.73;4.68;;;15.40;46.60;;;;;;4969798;28;20142;-88
2021/04/04 08:47:54;;;;;;;7.22;4.00;;;15.30;46.10;;;;;;4939694;28;20074;-88
2021/04/04 08:50:22;;;;;;;10.73;4.63;;;14.90;46.40;;;;;;4973515;28;20425;-86
2021/04/04 08:53:08;;;;;;;9.57;3.90;;;15.30;45.30;;;;;;4977000;28;20518;-86
2021/04/04 08:55:38;;;;;;;6.47;3.92;;;15.50;46.30;;;;;;4975037;28;20077;-87
2021/04/04 08:58:09;;;;;;;8.82;3.75;;;16.10;45.50;;;;;;4964346;28;20066;-90
2021/04/04 09:00:38;;;;;;;7.85;3.80;;;15.80;43.50;;;;;;4981412;28;20084;-87
2021/04/04 09:03:24;;;;;;;9.60;3.95;;;15.70;44.00;;;;;;4987706;28;20043;-87
2021/04/04 09:09:48;;;;;;;10.38;4.40;;;16.80;40.90;;;;;;4960893;28;20506;-87
2021/04/04 09:12:32;;;;;;;8.45;3.65;;;17.50;39.90;;;;;;4955777;28;20255;-89
2021/04/04 09:15:11;;;;;;;7.75;3.75;;;17.70;41.40;;;;;;4955355;28;20050;-87
2021/04/04 09:17:48;;;;;;;7.53;3.28;;;17.70;41.30;;;;;;5005225;28;20124;-87
2021/04/04 09:20:15;;;;;;;7.15;3.63;;;18.00;40.00;;;;;;5021115;28;20081;-88
2021/04/04 09:22:48;;;;;;;9.82;3.95;;;18.40;37.50;;;;;;5012392;28;20129;-88
2021/04/04 09:25:53;;;;;;;6.63;3.95;;;17.50;39.20;;;;;;5012691;28;20084;-89
2021/04/04 09:28:29;;;;;;;8.60;4.20;;;17.60;39.50;;;;;;5017101;28;20077;-90
2021/04/04 09:30:59;;;;;;;9.23;4.18;;;17.80;37.70;;;;;;5012070;28;20073;-87
2021/04/04 09:33:30;;;;;;;6.82;3.60;;;17.60;38.00;;;;;;5008111;28;20058;-89
2021/04/04 09:36:04;;;;;;;8.07;4.18;;;17.10;39.60;;;;;;5021912;28;20052;-88
2021/04/04 09:38:38;;;;;;;10.75;3.88;;;16.90;39.30;;;;;;4996005;28;20069;-88
2021/04/04 09:41:11;;;;;;;9.50;3.63;;;17.10;40.50;;;;;;5013659;28;20073;-87
2021/04/04 09:43:43;;;;;;;6.72;3.95;;;16.50;39.60;;;;;;5014253;28;20071;-86
2021/04/04 09:46:10;;;;;;;12.75;4.43;;;16.40;41.00;;;;;;5037993;28;20134;-87
2021/04/04 09:52:50;;;;;;;11.57;4.50;;;15.90;39.70;;;;;;5037790;28;20291;-87
2021/04/04 09:55:19;;;;;;;8.95;3.70;;;15.50;39.40;;;;;;5048271;28;20087;-87
2021/04/04 10:00:54;;;;;;;7.57;3.47;;;15.50;43.30;;;;;;5013191;28;20085;-89
2021/04/04 10:03:21;;;;;;;8.70;3.20;;;17.30;38.30;;;;;;5015021;28;20103;-88
2021/04/04 10:05:50;;;;;;;7.05;2.90;;;18.60;35.60;;;;;;5013340;28;20116;-87
2021/04/04 10:08:19;;;;;;;7.18;4.75;;;19.10;34.70;;;;;;5013285;28;20132;-89
2021/04/04 10:10:54;;;;;;;7.22;3.08;;;18.90;35.50;;;;;;5032513;28;20486;-88
2021/04/04 10:13:25;;;;;;;9.27;3.40;;;19.10;35.80;;;;;;5030546;28;20123;-87
2021/04/04 10:15:55;;;;;;;7.07;3.33;;;19.60;35.70;;;;;;5011310;28;20054;-89
2021/04/04 10:18:23;;;;;;;5.35;3.00;;;20.00;34.10;;;;;;5033428;28;20065;-88
2021/04/04 10:20:52;;;;;;;6.10;3.42;;;19.70;32.90;;;;;;5035855;28;20108;-87
2021/04/04 10:23:31;;;;;;;;;;;19.90;34.40;;;;;;5037574;28;20120;-88
2021/04/04 10:26:10;;;;;;;7.72;3.25;;;20.10;33.10;;;;;;5017072;28;19929;-89
2021/04/04 10:28:48;;;;;;;8.77;3.45;;;19.90;32.60;;;;;;5029885;28;20081;-85
2021/04/04 10:31:16;;;;;;;5.57;3.28;;;19.80;31.10;;;;;;5036197;28;20069;-87
2021/04/04 10:33:43;;;;;;;6.75;3.17;;;19.70;31.00;;;;;;5028979;28;20434;-87
2021/04/04 10:36:24;;;;;;;7.45;3.35;;;19.70;31.20;;;;;;5033641;28;20052;-88
2021/04/04 10:38:52;;;;;;;6.72;2.85;;;20.60;30.30;;;;;;5021526;28;20053;-88
2021/04/04 10:41:26;;;;;;;5.88;2.97;;;20.40;29.00;;;;;;5029332;28;20045;-88
2021/04/04 10:43:52;;;;;;;20.38;9.27;;;19.40;30.80;;;;;;5027435;28;20123;-88
2021/04/04 10:46:28;;;;;;;11.65;8.30;;;19.90;31.80;;;;;;5028091;28;20459;-90
2021/04/04 10:48:58;;;;;;;15.13;9.65;;;20.30;32.80;;;;;;5031742;28;20049;-88
2021/04/04 10:51:26;;;;;;;290.48;209.77;;;20.90;30.50;;;;;;5016116;28;20049;-90
2021/04/04 10:54:09;;;;;;;9.90;6.03;;;20.70;31.10;;;;;;5037563;28;20053;-91
2021/04/04 10:56:37;;;;;;;27.17;17.17;;;20.90;31.60;;;;;;5017429;28;20073;-90
2021/04/04 10:59:18;;;;;;;10.25;6.00;;;20.60;30.90;;;;;;5008759;28;20150;-90
2021/04/04 11:01:51;;;;;;;8.35;5.38;;;20.60;32.30;;;;;;5023469;28;20053;-90
2021/04/04 11:04:21;;;;;;;7.55;3.33;;;20.10;31.90;;;;;;5015295;28;20083;-89
2021/04/04 11:06:49;;;;;;;9.23;4.47;;;20.00;32.70;;;;;;5043712;28;20080;-87
2021/04/04 11:09:17;;;;;;;7.22;3.55;;;20.20;31.80;;;;;;5040552;28;20057;-89
2021/04/04 11:11:48;;;;;;;12.45;8.00;;;21.30;28.50;;;;;;5013255;28;21810;-88
2021/04/04 11:14:15;;;;;;;19.33;11.88;;;21.90;29.80;;;;;;5030136;28;20061;-87
2021/04/04 11:16:59;;;;;;;13.93;6.97;;;22.10;29.00;;;;;;5027301;28;20050;-87
2021/04/04 11:19:29;;;;;;;31.25;18.60;;;22.50;29.90;;;;;;5019169;28;20056;-88
2021/04/04 11:22:05;;;;;;;42.03;25.17;;;21.80;28.90;;;;;;5018150;28;20050;-86
2021/04/04 11:25:09;;;;;;;13.50;5.43;;;21.60;29.00;;;;;;5015882;28;20434;-86
2021/04/04 11:27:37;;;;;;;11.02;6.50;;;21.50;30.40;;;;;;5022972;28;20050;-89
2021/04/04 11:30:05;;;;;;;10.30;5.18;;;21.30;28.60;;;;;;5030912;28;20474;-88
2021/04/04 11:32:31;;;;;;;7.25;2.88;;;21.20;27.60;;;;;;5026093;28;20059;-87
2021/04/04 11:35:03;;;;;;;7.53;3.38;;;20.70;27.90;;;;;;5036301;28;20170;-88
2021/04/04 11:37:37;;;;;;;5.28;2.88;;;20.10;30.00;;;;;;5037552;28;20132;-87
2021/04/04 11:40:25;;;;;;;6.30;3.13;;;20.50;29.40;;;;;;5011748;28;20132;-87
2021/04/04 11:43:24;;;;;;;7.30;3.13;;;20.10;29.40;;;;;;5024973;28;20073;-85
2021/04/04 11:45:53;;;;;;;4.80;3.22;;;20.20;29.70;;;;;;5028493;28;20058;-86
2021/04/04 11:48:34;;;;;;;6.00;3.17;;;21.10;27.50;;;;;;5014976;28;20122;-87
2021/04/04 11:51:10;;;;;;;6.00;3.10;;;21.50;29.70;;;;;;5021413;28;20081;-88
2021/04/04 11:53:47;;;;;;;7.97;3.20;;;21.50;28.10;;;;;;5030432;28;20444;-85
2021/04/04 11:56:44;;;;;;;7.28;3.33;;;21.10;27.60;;;;;;5017928;28;20083;-86
2021/04/04 11:59:12;;;;;;;4.22;2.92;;;21.20;29.20;;;;;;5048383;28;20116;-85
2021/04/04 12:01:41;;;;;;;6.47;3.15;;;21.90;29.30;;;;;;5057463;28;20067;-87
2021/04/04 12:04:19;;;;;;;6.00;3.08;;;23.00;27.10;;;;;;5037658;28;20526;-86
2021/04/04 12:06:59;;;;;;;5.15;2.83;;;23.70;25.30;;;;;;5055324;28;20382;-87
2021/04/04 12:09:26;;;;;;;5.45;2.78;;;24.00;27.10;;;;;;5037637;28;20057;-85
2021/04/04 12:12:03;;;;;;;6.40;2.78;;;23.90;26.30;;;;;;5039805;28;20049;-86
2021/04/04 12:14:33;;;;;;;6.38;3.10;;;22.40;26.10;;;;;;5038171;28;20045;-87
2021/04/04 12:17:04;;;;;;;8.00;2.78;;;20.90;28.00;;;;;;5032546;28;20041;-89
2021/04/04 12:19:35;;;;;;;7.45;2.97;;;20.10;28.10;;;;;;5041704;28;20124;-87
2021/04/04 12:22:05;;;;;;;7.55;3.63;;;20.00;28.40;;;;;;5055757;28;20063;-88
2021/04/04 12:24:46;;;;;;;9.50;3.00;;;20.10;28.70;;;;;;5047556;28;20469;-86
2021/04/04 12:27:17;;;;;;;5.13;3.28;;;20.10;28.20;;;;;;5040096;28;20076;-85
2021/04/04 12:29:49;;;;;;;5.38;3.10;;;20.00;29.90;;;;;;5059948;28;20099;-88
2021/04/04 12:32:32;;;;;;;6.22;2.97;;;21.00;28.30;;;;;;5058418;28;20049;-87
2021/04/04 12:35:06;;;;;;;5.50;3.08;;;21.40;27.70;;;;;;5050762;28;20053;-87
2021/04/04 12:37:36;;;;;;;7.60;3.20;;;21.90;26.00;;;;;;5057087;28;20094;-87
2021/04/04 12:40:08;;;;;;;6.78;3.05;;;22.30;26.80;;;;;;5028228;28;20490;-87
2021/04/04 12:42:42;;;;;;;7.00;3.22;;;22.60;26.20;;;;;;5031861;28;20474;-84
2021/04/04 12:45:13;;;;;;;6.95;3.30;;;22.60;25.70;;;;;;5036093;28;20068;-86
2021/04/04 12:47:43;;;;;;;5.45;3.03;;;23.20;25.40;;;;;;5044849;28;20441;-85
2021/04/04 12:50:26;;;;;;;5.50;3.33;;;23.30;24.90;;;;;;5048063;28;20350;-86
2021/04/04 12:52:53;;;;;;;;;;;23.70;24.90;;;;;;5037603;28;20072;-86
2021/04/04 12:55:30;;;;;;;7.38;3.53;;;24.20;26.40;;;;;;5038047;28;19951;-86
2021/04/04 12:58:11;;;;;;;7.78;4.28;;;23.60;26.60;;;;;;5060071;28;20045;-89
2021/04/04 13:00:43;;;;;;;6.85;3.80;;;23.20;27.20;;;;;;5040550;28;20076;-87
2021/04/04 13:03:20;;;;;;;6.20;3.95;;;23.40;26.80;;;;;;5051408;28;20139;-86
2021/04/04 13:05:53;;;;;;;6.20;3.65;;;23.40;27.50;;;;;;5014281;28;20053;-85
2021/04/04 13:08:34;;;;;;;5.95;3.15;;;23.50;26.60;;;;;;5039380;28;20101;-87
2021/04/04 13:11:11;;;;;;;5.68;3.13;;;23.20;26.10;;;;;;5040909;28;20081;-88
2021/04/04 13:13:45;;;;;;;4.88;2.92;;;23.10;26.40;;;;;;5044046;28;20099;-89
2021/04/04 13:16:18;;;;;;;4.05;2.97;;;23.20;26.40;;;;;;5039443;28;20397;-88
2021/04/04 13:18:50;;;;;;;4.75;2.80;;;23.60;25.70;;;;;;5045939;28;20049;-87
2021/04/04 13:21:26;;;;;;;6.53;3.05;;;24.30;23.40;;;;;;5028083;28;20128;-88
2021/04/04 13:23:55;;;;;;;8.18;3.75;;;24.20;25.30;;;;;;5044445;28;20556;-89
2021/04/04 13:26:27;;;;;;;5.70;3.50;;;23.80;26.10;;;;;;5036817;28;20107;-88
2021/04/04 13:28:57;;;;;;;6.80;3.20;;;24.10;24.70;;;;;;5041741;28;20063;-89
2021/04/04 13:31:26;;;;;;;4.20;2.90;;;24.40;24.50;;;;;;5040135;28;20139;-88
2021/04/04 13:34:12;;;;;;;6.43;3.47;;;24.30;25.30;;;;;;5046717;28;20367;-92
2021/04/04 13:36:56;;;;;;;6.00;3.50;;;23.50;26.30;;;;;;5018761;28;20055;-88
2021/04/04 13:39:30;;;;;;;6.40;3.65;;;22.50;27.40;;;;;;5041560;28;20056;-90